createdAt,value
2023-02-11T00:01:09.987Z,46.01
2023-02-11T00:03:55.853Z,46.12
2023-02-11T00:06:41.813Z,46.70
2023-02-11T00:09:29.349Z,46.28
2023-02-11T00:12:17.003Z,45.03
2023-02-11T00:15:02.859Z,45.85
2023-02-11T00:17:48.824Z,49.42
2023-02-11T00:20:34.727Z,50.77
2023-02-11T00:23:20.720Z,48.70
2023-02-11T00:26:06.580Z,49.42
2023-02-11T00:28:52.477Z,50.98
2023-02-11T00:31:38.421Z,50.20
2023-02-11T00:34:24.667Z,53.37
2023-02-11T00:37:10.616Z,52.31
2023-02-11T00:39:56.374Z,51.27
2023-02-11T00:42:42.268Z,54.46
2023-02-11T00:45:28.179Z,55.40
2023-02-11T00:48:14.054Z,55.78
2023-02-11T00:51:00.106Z,53.66
2023-02-11T00:53:46.050Z,53.33
2023-02-11T00:56:31.990Z,56.01
2023-02-11T00:59:18.108Z,55.28
2023-02-11T01:02:03.918Z,56.85
2023-02-11T01:04:49.978Z,57.89
2023-02-11T01:07:36.353Z,59.58
2023-02-11T01:10:22.182Z,57.27
2023-02-11T01:13:08.079Z,59.87
2023-02-11T01:15:54.117Z,61.69
2023-02-11T01:18:40.404Z,60.72
2023-02-11T01:21:26.145Z,60.42
2023-02-11T01:24:11.979Z,61.00
2023-02-11T01:26:57.912Z,62.00
2023-02-11T01:29:43.804Z,63.29
2023-02-11T01:32:29.684Z,61.48
2023-02-11T01:35:15.560Z,59.63
2023-02-11T01:38:01.438Z,59.52
2023-02-11T01:40:47.302Z,61.46
2023-02-11T01:43:33.225Z,62.52
2023-02-11T01:46:19.073Z,64.14
2023-02-11T01:49:05.326Z,62.04
2023-02-11T01:51:51.553Z,62.26
2023-02-11T01:54:37.312Z,62.18
2023-02-11T01:57:23.167Z,63.33
2023-02-11T02:00:09.051Z,65.20
2023-02-11T02:02:54.944Z,65.48
2023-02-11T02:05:40.807Z,66.79
2023-02-11T02:08:26.695Z,64.32
2023-02-11T02:11:12.676Z,66.34
2023-02-11T02:13:58.631Z,66.42
2023-02-11T02:16:44.449Z,66.87
2023-02-11T02:19:30.462Z,66.25
2023-02-11T02:22:16.211Z,66.78
2023-02-11T02:25:02.209Z,65.08
2023-02-11T02:27:48.222Z,67.14
2023-02-11T02:30:34.192Z,68.03
2023-02-11T02:33:23.329Z,64.58
2023-02-11T02:36:09.617Z,63.29
2023-02-11T02:38:55.450Z,65.07
2023-02-11T02:41:41.373Z,64.84
2023-02-11T02:44:27.359Z,62.18
2023-02-11T02:47:13.409Z,60.51
2023-02-11T02:49:59.403Z,60.57
2023-02-11T02:52:47.295Z,58.76
2023-02-11T02:55:33.164Z,56.57
2023-02-11T02:58:19.266Z,55.83
2023-02-11T03:01:05.038Z,54.45
2023-02-11T03:03:50.893Z,53.80
2023-02-11T03:06:36.863Z,54.60
2023-02-11T03:09:22.653Z,51.07
2023-02-11T03:12:08.497Z,51.08
2023-02-11T03:14:54.352Z,50.22
2023-02-11T03:17:40.254Z,46.93
2023-02-11T03:20:26.234Z,46.12
2023-02-11T03:23:12.103Z,46.21
2023-02-11T03:25:57.971Z,45.79
2023-02-11T03:28:43.877Z,44.51
2023-02-11T03:31:29.855Z,42.37
2023-02-11T03:34:16.127Z,41.25
2023-02-11T03:37:01.959Z,40.48
2023-02-11T03:39:47.820Z,39.04
2023-02-11T03:42:33.769Z,38.17
2023-02-11T03:45:19.529Z,39.56
2023-02-11T03:48:05.405Z,37.89
2023-02-11T03:50:51.494Z,37.04
2023-02-11T03:53:37.405Z,35.48
2023-02-11T03:56:23.343Z,34.63
2023-02-11T03:59:09.309Z,33.19
2023-02-11T04:01:55.209Z,32.75
2023-02-11T04:04:41.107Z,31.75
2023-02-11T04:07:26.822Z,32.80
2023-02-11T04:10:12.779Z,32.32
2023-02-11T04:13:18.932Z,31.83
2023-02-11T04:16:04.876Z,33.70
2023-02-11T04:18:50.831Z,34.04
2023-02-11T04:21:36.756Z,30.61
2023-02-11T04:24:22.622Z,28.71
2023-02-11T04:27:08.714Z,27.15
2023-02-11T04:29:54.685Z,25.65
2023-02-11T04:32:40.534Z,25.28
2023-02-11T04:35:26.542Z,24.03
2023-02-11T04:38:12.379Z,23.99
2023-02-11T04:40:58.419Z,24.48
2023-02-11T04:43:44.362Z,24.36
2023-02-11T04:46:30.268Z,25.39
2023-02-11T04:49:16.277Z,25.15
2023-02-11T04:52:04.252Z,24.86
2023-02-11T04:54:50.086Z,25.75
2023-02-11T04:57:36.147Z,24.44
2023-02-11T05:00:22.049Z,25.29
2023-02-11T05:03:07.970Z,25.39
2023-02-11T05:05:53.911Z,26.04
2023-02-11T05:08:39.645Z,27.34
2023-02-11T05:11:25.689Z,28.73
2023-02-11T05:14:11.532Z,30.35
2023-02-11T05:16:57.472Z,31.11
2023-02-11T05:19:43.728Z,32.57
2023-02-11T05:22:29.610Z,33.45
2023-02-11T05:25:15.482Z,33.73
2023-02-11T05:28:01.356Z,35.25
2023-02-11T05:30:47.204Z,35.23
2023-02-11T05:33:33.192Z,36.44
2023-02-11T05:36:19.277Z,35.27
2023-02-11T05:39:05.067Z,37.52
2023-02-11T05:41:51.066Z,40.07
2023-02-11T05:44:37.017Z,41.60
2023-02-11T05:47:23.318Z,40.98
2023-02-11T05:50:09.279Z,39.65
2023-02-11T05:52:55.094Z,38.74
2023-02-11T05:55:41.422Z,38.55
2023-02-11T05:58:27.485Z,38.72
2023-02-11T06:01:13.275Z,38.30
2023-02-11T06:03:59.268Z,37.67
2023-02-11T06:06:45.290Z,36.10
2023-02-11T06:09:31.124Z,33.46
2023-02-11T06:12:17.026Z,32.56
2023-02-11T06:15:02.879Z,33.79
2023-02-11T06:17:48.814Z,33.21
2023-02-11T06:20:34.719Z,35.51
2023-02-11T06:23:20.551Z,31.92
2023-02-11T06:26:06.530Z,32.56
2023-02-11T06:28:52.457Z,34.59
2023-02-11T06:31:38.436Z,35.16
2023-02-11T06:34:24.757Z,36.91
2023-02-11T06:37:10.521Z,36.09
2023-02-11T06:39:56.440Z,34.59
2023-02-11T06:42:42.374Z,34.05
2023-02-11T06:45:28.182Z,33.59
2023-02-11T06:48:14.067Z,35.31
2023-02-11T06:50:59.920Z,34.88
2023-02-11T06:53:47.924Z,33.66
2023-02-11T06:56:33.760Z,34.27
2023-02-11T06:59:19.676Z,36.35
2023-02-11T07:02:05.762Z,39.79
2023-02-11T07:04:51.766Z,40.24
2023-02-11T07:07:37.689Z,39.13
2023-02-11T07:10:23.698Z,40.18
2023-02-11T07:13:09.656Z,40.53
2023-02-11T07:15:55.649Z,38.29
2023-02-11T07:18:41.801Z,39.11
2023-02-11T07:21:27.616Z,36.71
2023-02-11T07:24:13.637Z,37.58
2023-02-11T07:26:59.636Z,39.45
2023-02-11T07:29:45.425Z,40.72
2023-02-11T07:32:31.467Z,40.92
2023-02-11T07:35:17.400Z,40.24
2023-02-11T07:38:03.335Z,42.42
2023-02-11T07:40:49.241Z,41.21
2023-02-11T07:43:35.270Z,43.17
2023-02-11T07:46:21.388Z,44.32
2023-02-11T07:49:07.664Z,43.10
2023-02-11T07:51:53.510Z,44.17
2023-02-11T07:54:39.475Z,47.77
2023-02-11T07:57:25.354Z,48.37
2023-02-11T08:00:11.313Z,51.49
2023-02-11T08:02:59.251Z,45.10
2023-02-11T08:05:45.102Z,46.94
2023-02-11T08:08:31.000Z,45.24
2023-02-11T08:11:16.988Z,46.14
2023-02-11T08:14:02.958Z,47.13
2023-02-11T08:16:49.003Z,46.14
2023-02-11T08:19:35.322Z,46.49
2023-02-11T08:22:21.235Z,46.84
2023-02-11T08:25:07.198Z,48.27
2023-02-11T08:27:53.158Z,49.23
2023-02-11T08:30:39.051Z,49.32
2023-02-11T08:33:26.934Z,47.97
2023-02-11T08:36:12.888Z,50.34
2023-02-11T08:39:12.141Z,50.21
2023-02-11T08:42:03.886Z,50.89
2023-02-11T08:44:49.998Z,50.51
2023-02-11T08:47:35.850Z,51.26
2023-02-11T08:50:21.756Z,48.60
2023-02-11T08:53:07.580Z,48.81
2023-02-11T08:55:53.648Z,47.24
2023-02-11T08:58:39.706Z,49.16
2023-02-11T09:01:25.701Z,46.60
2023-02-11T09:04:11.644Z,46.34
2023-02-11T09:06:57.564Z,44.70
2023-02-11T09:09:43.453Z,42.24
2023-02-11T09:12:29.330Z,44.52
2023-02-11T09:15:15.139Z,44.53
2023-02-11T09:18:00.919Z,46.10
2023-02-11T09:20:46.842Z,43.30
2023-02-11T09:23:32.798Z,41.72
2023-02-11T09:26:18.664Z,43.70
2023-02-11T09:29:04.602Z,44.73
2023-02-11T09:31:50.596Z,47.26
2023-02-11T09:34:36.820Z,46.51
2023-02-11T09:37:22.647Z,45.30
2023-02-11T09:40:08.617Z,44.16
2023-02-11T09:42:55.304Z,45.59
2023-02-11T09:45:41.949Z,44.89
2023-02-11T09:48:27.780Z,45.55
2023-02-11T09:51:13.635Z,45.99
2023-02-11T09:54:01.289Z,44.50
2023-02-11T09:56:48.258Z,45.65
2023-02-11T09:59:34.622Z,45.47
2023-02-11T10:02:20.543Z,44.27
2023-02-11T10:05:06.448Z,44.11
2023-02-11T10:07:52.269Z,44.50
2023-02-11T10:10:38.106Z,42.90
2023-02-11T10:13:24.073Z,45.80
2023-02-11T10:16:09.846Z,42.53
2023-02-11T10:18:55.754Z,41.61
2023-02-11T10:21:41.649Z,39.75
2023-02-11T10:24:27.488Z,37.17
2023-02-11T10:27:13.358Z,35.42
2023-02-11T10:29:59.266Z,34.79
2023-02-11T11:51:28.200Z,44.68
2023-02-11T11:54:14.219Z,48.11
2023-02-11T11:57:00.222Z,45.92
2023-02-11T11:59:46.083Z,46.29
2023-02-11T12:02:31.850Z,44.76
2023-02-11T12:05:17.710Z,47.39
2023-02-11T12:08:03.754Z,45.54
2023-02-11T12:10:49.989Z,43.53
2023-02-11T12:13:35.961Z,42.74
2023-02-11T12:16:22.060Z,73.83
2023-02-11T12:19:07.991Z,46.16
2023-02-11T12:21:53.937Z,44.05
2023-02-11T12:24:41.872Z,44.83
2023-02-11T12:27:27.801Z,43.52
2023-02-11T12:30:13.583Z,43.19
2023-02-11T12:32:59.614Z,42.51
2023-02-11T12:35:45.414Z,42.28
2023-02-11T12:38:31.307Z,41.91
2023-02-11T12:41:17.332Z,41.06
2023-02-11T12:44:03.177Z,41.87
2023-02-11T12:46:49.046Z,40.96
2023-02-11T12:49:34.848Z,41.18
2023-02-11T12:52:20.684Z,41.15
2023-02-11T12:55:06.536Z,40.07
2023-02-11T12:57:52.378Z,38.49
2023-02-11T13:00:38.241Z,37.54
2023-02-11T13:03:24.138Z,36.43
2023-02-11T13:06:09.941Z,35.83
2023-02-11T13:08:55.756Z,36.65
2023-02-11T13:11:41.602Z,34.94
2023-02-11T13:14:27.425Z,33.87
2023-02-11T13:17:13.298Z,33.99
2023-02-11T13:19:59.256Z,32.52
2023-02-11T13:22:45.082Z,32.77
2023-02-11T13:25:30.838Z,31.74
2023-02-11T13:28:16.902Z,30.18
2023-02-11T13:31:04.902Z,28.57
2023-02-11T13:33:53.190Z,26.53
2023-02-11T13:36:38.904Z,24.64
2023-02-11T13:39:24.812Z,26.55
2023-02-11T13:42:10.733Z,37.44
2023-02-11T13:44:56.491Z,53.18
2023-02-11T13:47:42.363Z,28.54
2023-02-11T13:50:28.170Z,25.54
2023-02-11T13:53:16.033Z,25.93
2023-02-11T13:56:02.163Z,26.47
2023-02-11T13:58:47.888Z,29.24
2023-02-11T14:01:33.851Z,28.97
2023-02-11T14:04:19.806Z,32.88
2023-02-11T14:07:05.671Z,32.59
2023-02-11T14:09:51.610Z,32.40
2023-02-11T14:12:37.512Z,34.75
2023-02-11T14:15:23.510Z,29.68
2023-02-11T14:18:09.391Z,30.48
2023-02-11T14:20:55.184Z,40.53
2023-02-11T14:23:41.146Z,42.35
2023-02-11T14:26:27.030Z,42.14
2023-02-11T14:29:12.769Z,44.92
2023-02-11T14:31:58.672Z,44.83
2023-02-11T14:34:44.911Z,43.95
2023-02-11T14:37:30.726Z,44.99
2023-02-11T14:40:16.702Z,43.32
2023-02-11T14:43:02.592Z,39.81
2023-02-11T14:45:48.588Z,42.20
2023-02-11T14:48:34.390Z,38.92
2023-02-11T14:51:20.323Z,39.84
2023-02-11T14:54:06.298Z,39.41
2023-02-11T14:56:52.123Z,41.69
2023-02-11T14:59:38.144Z,39.79
2023-02-11T15:02:24.200Z,39.44
2023-02-11T15:05:10.181Z,39.03
2023-02-11T15:07:56.133Z,36.30
2023-02-11T15:10:41.851Z,37.66
2023-02-11T15:13:27.833Z,37.33
2023-02-11T15:16:18.230Z,37.89
2023-02-11T15:19:04.322Z,39.00
2023-02-11T15:21:50.423Z,39.56
2023-02-11T15:24:36.332Z,39.33
2023-02-11T15:27:22.068Z,39.45
2023-02-11T15:30:07.966Z,40.34
2023-02-11T15:32:54.041Z,40.60
2023-02-11T15:35:40.128Z,41.90
2023-02-11T15:38:26.003Z,42.11
2023-02-11T15:41:11.975Z,41.55
2023-02-11T15:43:57.757Z,42.45
2023-02-11T15:46:43.751Z,43.47
2023-02-11T15:49:29.605Z,44.87
2023-02-11T15:52:15.493Z,44.37
2023-02-11T15:55:01.647Z,44.95
2023-02-11T15:57:47.446Z,45.15
2023-02-11T16:00:33.369Z,45.93
2023-02-11T16:03:19.930Z,46.86
2023-02-11T16:06:05.852Z,46.01
2023-02-11T16:08:51.848Z,47.16
2023-02-11T16:11:37.686Z,47.50
2023-02-11T16:14:23.606Z,47.73
2023-02-11T16:17:09.483Z,48.07
2023-02-11T16:19:55.484Z,48.99
2023-02-11T16:22:41.338Z,48.91
2023-02-11T16:25:27.003Z,47.43
2023-02-11T16:28:12.835Z,47.93
2023-02-11T16:31:01.533Z,48.19
2023-02-11T16:33:48.311Z,50.57
2023-02-11T16:36:34.124Z,50.74
2023-02-11T16:39:21.066Z,46.94
2023-02-11T16:42:07.620Z,45.86
2023-02-11T16:44:53.918Z,46.65
2023-02-11T16:47:39.810Z,46.92
2023-02-11T16:50:25.651Z,46.52
2023-02-11T16:53:11.497Z,46.56
2023-02-11T16:55:57.584Z,46.69
2023-02-11T16:58:43.462Z,45.64
2023-02-11T17:01:29.641Z,45.61
2023-02-11T17:04:15.901Z,46.37
2023-02-11T17:07:01.732Z,46.53
2023-02-11T17:09:47.623Z,47.43
2023-02-11T17:12:33.510Z,46.37
2023-02-11T17:15:19.445Z,47.50
2023-02-11T17:18:05.443Z,47.92
2023-02-11T17:20:51.156Z,47.55
2023-02-11T17:23:36.980Z,45.68
2023-02-11T17:26:22.818Z,45.72
2023-02-11T17:29:08.654Z,46.57
2023-02-11T17:31:54.678Z,47.39
2023-02-11T17:34:40.901Z,48.39
2023-02-11T17:37:26.778Z,46.13
2023-02-11T17:40:12.720Z,44.87
2023-02-11T17:42:58.594Z,43.69
2023-02-11T17:45:44.542Z,43.07
2023-02-11T17:48:30.504Z,45.80
2023-02-11T17:51:16.442Z,43.88
2023-02-11T17:54:02.366Z,43.85
2023-02-11T17:56:50.331Z,45.33
2023-02-11T17:59:36.749Z,45.31
2023-02-11T18:02:22.669Z,44.98
2023-02-11T18:05:10.403Z,42.74
2023-02-11T18:07:56.335Z,41.72
2023-02-11T18:10:42.160Z,41.29
2023-02-11T18:13:27.989Z,41.51
2023-02-11T18:16:13.882Z,41.60
2023-02-11T18:18:59.688Z,41.70
2023-02-11T18:21:45.611Z,40.75
2023-02-11T18:24:31.603Z,39.43
2023-02-11T18:27:17.455Z,38.92
2023-02-11T18:30:03.391Z,40.25
2023-02-11T18:32:49.297Z,40.16
2023-02-11T18:35:35.071Z,41.04
2023-02-11T18:38:21.156Z,41.58
2023-02-11T18:41:07.222Z,41.93
2023-02-11T18:43:53.119Z,40.60
2023-02-11T18:46:39.077Z,38.99
2023-02-11T18:49:24.990Z,37.71
2023-02-11T18:52:11.010Z,38.62
2023-02-11T18:54:57.042Z,38.05
2023-02-11T18:57:42.818Z,37.48
2023-02-11T19:00:28.681Z,34.46
2023-02-11T19:03:14.508Z,35.57
2023-02-11T19:06:00.456Z,34.69
2023-02-11T19:08:46.271Z,34.28
2023-02-11T19:11:32.217Z,33.56
2023-02-11T19:14:18.211Z,33.65
2023-02-11T19:17:04.217Z,32.91
2023-02-11T19:19:50.116Z,30.79
2023-02-11T19:22:38.058Z,26.83
2023-02-11T19:25:24.029Z,23.40
2023-02-11T19:28:09.849Z,21.36
2023-02-11T19:30:55.874Z,20.46
2023-02-11T19:33:42.183Z,20.01
2023-02-11T19:36:28.067Z,21.47
2023-02-11T19:39:14.040Z,20.54
2023-02-11T19:42:00.011Z,21.32
2023-02-11T19:44:45.904Z,21.33
2023-02-11T19:47:31.822Z,22.40
2023-02-11T19:50:17.741Z,23.22
2023-02-11T19:53:03.696Z,22.93
2023-02-11T19:55:50.035Z,24.68
2023-02-11T19:58:36.151Z,24.84
2023-02-11T20:01:22.254Z,26.25
2023-02-11T20:04:08.184Z,25.30
2023-02-11T20:06:54.162Z,25.47
2023-02-11T20:09:40.043Z,27.81
2023-02-11T20:12:25.987Z,29.89
2023-02-11T20:15:12.022Z,30.15
2023-02-11T20:17:57.697Z,30.73
2023-02-11T20:20:43.510Z,31.61
2023-02-11T20:23:29.255Z,31.41
2023-02-11T20:26:15.047Z,31.01
2023-02-11T20:29:01.074Z,31.42
2023-02-11T20:31:47.067Z,30.39
2023-02-11T20:34:33.424Z,28.36
2023-02-11T20:37:19.442Z,27.77
2023-02-11T20:40:05.188Z,29.16
2023-02-11T20:42:51.158Z,29.88
2023-02-11T20:45:37.032Z,30.67
2023-02-11T20:48:23.855Z,30.00
2023-02-11T20:51:09.742Z,30.93
2023-02-11T20:53:55.696Z,30.98
2023-02-11T20:56:41.558Z,31.11
2023-02-11T20:59:27.429Z,31.62
2023-02-11T21:02:13.262Z,31.36
2023-02-11T21:04:59.291Z,31.81
2023-02-11T21:07:45.299Z,31.19
2023-02-11T21:10:31.249Z,31.23
2023-02-11T21:13:17.367Z,31.42
2023-02-11T21:16:03.349Z,31.53
2023-02-11T21:18:49.291Z,32.64
2023-02-11T21:21:35.341Z,32.96
2023-02-11T21:24:21.121Z,33.67
2023-02-11T21:27:06.945Z,33.08
2023-02-11T21:29:54.516Z,32.52
2023-02-11T21:32:40.747Z,33.39
2023-02-11T21:35:26.629Z,33.08
2023-02-11T21:38:12.616Z,32.74
2023-02-11T21:40:58.429Z,33.22
2023-02-11T21:43:44.379Z,32.94
2023-02-11T21:46:30.277Z,33.51
2023-02-11T21:49:16.149Z,32.95
2023-02-11T21:52:02.061Z,32.70
2023-02-11T21:54:47.862Z,32.01
2023-02-11T21:57:33.764Z,34.10
2023-02-11T22:00:19.629Z,32.85
2023-02-11T22:03:05.514Z,33.70
2023-02-11T22:05:51.346Z,32.98
2023-02-11T22:08:37.066Z,33.17
2023-02-11T22:11:23.021Z,32.11
2023-02-11T22:14:08.875Z,33.15
2023-02-11T22:16:54.692Z,31.99
2023-02-11T22:19:40.637Z,31.79
2023-02-11T22:22:26.377Z,32.76
2023-02-11T22:25:12.289Z,32.65
2023-02-11T22:27:58.172Z,32.35
2023-02-11T22:30:44.111Z,32.57
2023-02-11T22:33:29.989Z,31.05
2023-02-11T22:36:15.843Z,33.03
2023-02-11T22:39:01.843Z,32.71
2023-02-11T22:41:47.753Z,32.75
2023-02-11T22:44:33.595Z,33.03
2023-02-11T22:47:19.406Z,33.86
2023-02-11T22:50:05.237Z,33.20
2023-02-11T22:52:51.001Z,33.63
2023-02-11T22:55:37.026Z,33.45
2023-02-11T22:58:22.904Z,34.91
2023-02-11T23:01:08.724Z,34.96
2023-02-11T23:03:54.516Z,34.65
2023-02-11T23:06:40.406Z,34.59
2023-02-11T23:09:26.302Z,34.55
2023-02-11T23:12:12.334Z,35.69
2023-02-11T23:14:58.235Z,35.32
2023-02-11T23:17:44.145Z,35.75
2023-02-11T23:20:30.087Z,35.44
2023-02-11T23:23:15.911Z,35.91
2023-02-11T23:26:02.030Z,37.98
2023-02-11T23:28:47.903Z,37.64
2023-02-11T23:31:34.196Z,37.44
2023-02-11T23:34:20.505Z,38.51
2023-02-11T23:37:06.375Z,38.27
2023-02-11T23:39:54.259Z,39.07
2023-02-11T23:42:40.155Z,38.71
2023-02-11T23:45:26.085Z,38.56
2023-02-11T23:48:12.056Z,39.17
2023-02-11T23:50:57.889Z,39.44
2023-02-11T23:54:27.182Z,39.95
2023-02-11T23:57:13.112Z,38.73
2023-02-11T23:59:58.825Z,38.86
